Time;durP1;ratioP1;P1;durP2;ratioP2;P2;SDS_P1;SDS_P2;PMS_P1;PMS_P2;Temp;Humidity;BMP_temperature;BMP_pressure;BME280_temperature;BME280_humidity;BME280_pressure;Samples;Min_cycle;Max_cycle;Signal;HPM_P1;HPM_P2
2021/11/16 00:00:26;;;;;;;34.73;25.53;;;8.60;46.90;;;;;;10456244;28;20254;-74
2021/11/16 00:05:29;;;;;;;35.80;27.00;;;8.60;47.00;;;;;;10458826;28;20450;-73
2021/11/16 00:10:32;;;;;;;30.20;23.97;;;8.60;46.90;;;;;;10457960;28;20311;-73
2021/11/16 00:15:37;;;;;;;34.03;25.63;;;8.60;46.90;;;;;;10461311;28;20247;-73
2021/11/16 00:20:43;;;;;;;33.07;25.33;;;8.70;47.20;;;;;;10456288;28;20595;-73
2021/11/16 00:25:50;;;;;;;32.03;25.33;;;8.70;47.00;;;;;;10452131;28;20232;-73
2021/11/16 00:30:54;;;;;;;32.17;25.20;;;8.70;47.10;;;;;;10455905;28;20237;-72
2021/11/16 00:35:58;;;;;;;33.43;25.07;;;8.80;47.10;;;;;;10460857;28;20301;-73
2021/11/16 00:41:02;;;;;;;30.30;23.20;;;8.80;46.90;;;;;;10455708;28;20224;-73
2021/11/16 00:46:06;;;;;;;31.83;24.60;;;8.80;46.90;;;;;;10457422;28;20590;-73
2021/11/16 00:51:11;;;;;;;33.17;25.20;;;8.80;47.10;;;;;;10459562;28;20628;-73
2021/11/16 00:56:14;;;;;;;33.10;24.67;;;8.80;47.00;;;;;;10459540;28;20223;-73
2021/11/16 01:01:19;;;;;;;34.33;25.83;;;8.90;46.90;;;;;;10463358;28;20220;-73
2021/11/16 01:06:22;;;;;;;33.63;24.80;;;8.90;46.90;;;;;;10463166;28;20225;-73
2021/11/16 01:11:26;;;;;;;31.27;24.60;;;8.90;47.00;;;;;;10483493;22;20604;-72
2021/11/16 01:16:30;;;;;;;30.77;24.03;;;8.90;46.90;;;;;;10472873;28;20749;-75
2021/11/16 01:21:34;;;;;;;30.23;24.73;;;9.00;47.10;;;;;;10468772;28;20232;-73
2021/11/16 01:26:37;;;;;;;32.10;26.00;;;9.00;47.00;;;;;;10492056;28;20630;-73
2021/11/16 01:31:42;;;;;;;31.83;24.70;;;9.00;47.00;;;;;;10491870;28;20607;-75
2021/11/16 01:36:46;;;;;;;30.97;23.87;;;9.00;47.10;;;;;;10481882;28;21242;-75
2021/11/16 01:41:49;;;;;;;26.93;22.23;;;9.10;47.00;;;;;;10482881;28;20235;-72
2021/11/16 01:46:55;;;;;;;31.97;24.50;;;9.10;47.10;;;;;;10493547;28;20707;-75
2021/11/16 01:51:58;;;;;;;29.90;25.27;;;9.10;47.10;;;;;;10477615;28;20605;-73
2021/11/16 01:57:02;;;;;;;33.17;25.93;;;9.10;47.00;;;;;;10480094;28;21035;-75
2021/11/16 02:02:07;;;;;;;33.50;26.37;;;9.20;47.00;;;;;;10487342;28;20231;-73
2021/11/16 02:07:11;;;;;;;31.07;25.37;;;9.20;47.10;;;;;;10489907;28;20224;-73
2021/11/16 02:12:14;;;;;;;32.97;26.47;;;9.20;46.80;;;;;;10482690;28;20692;-72
2021/11/16 02:17:19;;;;;;;31.23;24.80;;;9.30;46.80;;;;;;10482405;28;20227;-73
2021/11/16 02:22:23;;;;;;;31.03;24.23;;;9.20;46.70;;;;;;10482894;28;20240;-73
2021/11/16 02:27:27;;;;;;;31.50;24.13;;;9.20;46.80;;;;;;10484998;28;20230;-73
2021/11/16 02:32:31;;;;;;;32.17;25.07;;;9.20;46.80;;;;;;10493535;28;20228;-75
2021/11/16 02:37:35;;;;;;;35.37;26.47;;;9.20;46.80;;;;;;10475028;28;20303;-73
2021/11/16 02:42:38;;;;;;;30.40;24.07;;;9.20;46.90;;;;;;10486170;28;20734;-75
2021/11/16 02:47:42;;;;;;;31.87;26.13;;;9.20;46.80;;;;;;10484062;28;20247;-75
2021/11/16 02:52:48;;;;;;;32.73;25.80;;;9.20;46.80;;;;;;10488293;28;20228;-74
2021/11/16 02:57:51;;;;;;;34.53;25.57;;;9.30;47.60;;;;;;10470244;28;20228;-75
2021/11/16 03:02:55;;;;;;;34.13;25.67;;;9.30;47.00;;;;;;10479184;28;20228;-74
2021/11/16 03:08:00;;;;;;;32.33;24.93;;;9.30;46.90;;;;;;10484037;28;20239;-74
2021/11/16 03:13:03;;;;;;;34.70;25.40;;;9.40;47.00;;;;;;10465811;28;20890;-75
2021/11/16 03:18:06;;;;;;;34.30;26.10;;;9.40;46.80;;;;;;10472406;28;20232;-75
2021/11/16 03:23:14;;;;;;;34.10;26.07;;;9.40;46.70;;;;;;10466880;28;20612;-75
2021/11/16 03:28:18;;;;;;;34.23;25.73;;;9.30;46.70;;;;;;10461423;28;20231;-75
2021/11/16 03:33:24;;;;;;;32.70;26.17;;;9.40;46.80;;;;;;10456972;28;20237;-75
2021/11/16 03:38:29;;;;;;;33.23;24.57;;;9.30;46.80;;;;;;10463879;28;20572;-75
2021/11/16 03:43:33;;;;;;;31.87;24.30;;;9.30;46.80;;;;;;10460386;28;20235;-75
2021/11/16 03:48:40;;;;;;;33.87;26.00;;;9.30;46.70;;;;;;10465834;28;20651;-75
2021/11/16 03:53:45;;;;;;;33.70;26.93;;;9.40;46.80;;;;;;10457015;28;20723;-75
2021/11/16 03:58:48;;;;;;;36.27;26.77;;;9.30;46.80;;;;;;10463120;28;20220;-75
2021/11/16 04:03:52;;;;;;;37.53;29.07;;;9.30;47.50;;;;;;10456335;28;20814;-75
2021/11/16 04:08:58;;;;;;;38.20;28.70;;;9.30;46.80;;;;;;10460499;28;20704;-74
2021/11/16 04:14:01;;;;;;;36.63;28.00;;;9.40;47.00;;;;;;10461048;28;20231;-75
2021/11/16 04:19:04;;;;;;;39.07;30.10;;;9.30;46.80;;;;;;10454863;28;20224;-75
2021/11/16 04:24:09;;;;;;;40.63;28.83;;;9.40;46.90;;;;;;10456364;28;20307;-75
2021/11/16 04:29:13;;;;;;;40.60;30.73;;;9.40;46.90;;;;;;10451890;28;20233;-75
2021/11/16 04:34:16;;;;;;;39.83;29.20;;;9.40;46.90;;;;;;10456881;28;20295;-75
2021/11/16 04:39:20;;;;;;;39.23;28.90;;;9.40;46.90;;;;;;10461790;28;20702;-75
2021/11/16 04:44:25;;;;;;;35.87;28.77;;;9.40;46.80;;;;;;10455668;28;20225;-75
2021/11/16 04:49:31;;;;;;;32.33;24.30;;;9.50;46.60;;;;;;10456976;28;20235;-75
2021/11/16 04:55:00;;;;;;;37.00;27.43;;;9.40;46.60;;;;;;10459313;28;20229;-75
2021/11/16 05:05:26;;;;;;;30.17;24.77;;;9.40;46.60;;;;;;10470248;28;20231;-75
2021/11/16 05:10:31;;;;;;;32.80;23.07;;;9.40;46.70;;;;;;10466249;28;20744;-75
2021/11/16 05:15:36;;;;;;;33.37;25.00;;;9.40;46.70;;;;;;10466539;28;20591;-75
2021/11/16 05:20:40;;;;;;;32.07;25.27;;;9.40;46.60;;;;;;10465333;28;20627;-75
2021/11/16 05:25:51;;;;;;;35.40;26.70;;;9.40;46.80;;;;;;10470552;28;20306;-75
2021/11/16 05:30:54;;;;;;;34.30;25.27;;;9.40;47.00;;;;;;10469028;28;20224;-75
2021/11/16 05:36:00;;;;;;;31.40;24.40;;;9.40;46.90;;;;;;10469225;28;20254;-75
2021/11/16 05:41:08;;;;;;;34.10;26.53;;;9.40;46.90;;;;;;10435175;28;20231;-75
2021/11/16 05:46:12;;;;;;;34.13;26.60;;;9.40;47.00;;;;;;10442831;28;20224;-75
2021/11/16 05:51:15;;;;;;;34.57;26.97;;;9.40;46.80;;;;;;10445123;28;20229;-78
2021/11/16 05:56:22;;;;;;;35.90;27.13;;;9.40;46.80;;;;;;10454047;28;20251;-78
2021/11/16 06:01:28;;;;;;;36.27;26.77;;;9.40;46.90;;;;;;10457713;28;20241;-79
2021/11/16 06:06:33;;;;;;;33.33;26.00;;;9.40;46.80;;;;;;10442157;28;20237;-78
2021/11/16 06:11:39;;;;;;;33.20;25.10;;;9.40;46.80;;;;;;10436645;28;20240;-78
2021/11/16 06:16:44;;;;;;;38.63;27.87;;;9.40;48.80;;;;;;10445643;28;20264;-78
2021/11/16 06:21:48;;;;;;;35.80;27.43;;;9.50;48.60;;;;;;10458023;28;20247;-78
2021/11/16 06:26:55;;;;;;;36.20;27.27;;;9.60;47.80;;;;;;10453695;28;20234;-78
2021/11/16 06:32:07;;;;;;;36.83;27.00;;;9.70;47.60;;;;;;10452154;28;20233;-78
2021/11/16 06:37:10;;;;;;;33.03;26.57;;;9.70;47.20;;;;;;10463120;28;20236;-78
2021/11/16 06:42:15;;;;;;;35.60;26.77;;;9.70;47.00;;;;;;10474266;28;20628;-79
2021/11/16 06:47:18;;;;;;;34.10;27.70;;;9.70;46.80;;;;;;10455613;28;20303;-78
2021/11/16 06:52:21;;;;;;;32.57;26.03;;;9.70;46.60;;;;;;10445619;28;20220;-78
2021/11/16 06:57:28;;;;;;;37.50;27.57;;;9.60;46.50;;;;;;10445238;28;20225;-78
2021/11/16 07:02:39;;;;;;;37.17;27.27;;;9.60;46.50;;;;;;10448845;28;20229;-78
2021/11/16 07:07:50;;;;;;;35.17;26.57;;;9.60;46.80;;;;;;10445102;28;20221;-78
2021/11/16 07:13:09;;;;;;;33.13;24.50;;;9.50;46.90;;;;;;10434324;28;20227;-77
2021/11/16 07:18:13;;;;;;;34.47;26.67;;;9.50;47.00;;;;;;10449753;28;20221;-77
2021/11/16 07:23:17;;;;;;;36.87;27.30;;;9.50;46.70;;;;;;10442882;28;20235;-75
2021/11/16 07:28:22;;;;;;;36.27;26.53;;;9.50;46.90;;;;;;10444896;28;20224;-79
2021/11/16 07:33:25;;;;;;;33.73;25.47;;;9.50;47.10;;;;;;10458423;28;20230;-79
2021/11/16 07:38:28;;;;;;;35.03;27.33;;;9.50;47.00;;;;;;10453046;28;20232;-79
2021/11/16 07:43:33;;;;;;;36.83;26.80;;;9.50;46.80;;;;;;10446394;28;20676;-79
2021/11/16 07:48:37;;;;;;;31.13;23.80;;;9.50;47.00;;;;;;10456159;28;20231;-79
2021/11/16 07:53:41;;;;;;;33.90;24.73;;;9.50;47.00;;;;;;10450466;28;20239;-80
2021/11/16 07:58:51;;;;;;;29.53;21.63;;;9.50;47.10;;;;;;10449894;28;20232;-80
2021/11/16 08:04:01;;;;;;;31.77;23.73;;;9.50;47.10;;;;;;10457574;28;20713;-80
2021/11/16 08:09:17;;;;;;;29.57;22.33;;;9.50;47.00;;;;;;10452331;28;20232;-80
2021/11/16 08:14:22;;;;;;;33.40;24.40;;;9.50;47.00;;;;;;10451645;28;20232;-80
2021/11/16 08:19:27;;;;;;;30.93;21.27;;;9.60;47.10;;;;;;10448601;28;20332;-80
2021/11/16 08:24:34;;;;;;;29.40;20.97;;;9.60;47.10;;;;;;10453389;28;20224;-80
2021/11/16 08:29:42;;;;;;;32.07;23.07;;;9.60;47.00;;;;;;10447363;28;20751;-80
2021/11/16 08:34:54;;;;;;;31.93;25.80;;;9.60;47.10;;;;;;10458581;28;20312;-81
2021/11/16 08:39:59;;;;;;;28.57;20.30;;;9.60;46.90;;;;;;10449878;28;20577;-80
2021/11/16 08:45:13;;;;;;;23.77;18.27;;;9.60;46.80;;;;;;10451614;28;20229;-80
2021/11/16 08:50:22;;;;;;;25.63;20.33;;;9.60;47.00;;;;;;10449877;28;20599;-79
2021/11/16 08:55:33;;;;;;;22.97;17.40;;;9.60;47.00;;;;;;10450572;28;20231;-81
2021/11/16 09:00:45;;;;;;;24.50;17.27;;;9.60;47.10;;;;;;10447958;28;20228;-80
2021/11/16 09:05:50;;;;;;;19.33;14.70;;;9.60;47.00;;;;;;10443270;28;20284;-80
2021/11/16 09:10:55;;;;;;;20.40;14.80;;;9.60;46.80;;;;;;10443543;28;20225;-78
2021/11/16 09:16:07;;;;;;;20.57;16.00;;;9.60;46.80;;;;;;10448361;28;20615;-78
2021/11/16 09:21:17;;;;;;;19.87;15.13;;;9.50;47.00;;;;;;10444022;28;20267;-77
2021/11/16 09:26:30;;;;;;;18.77;14.73;;;9.50;47.00;;;;;;10448646;28;20224;-77
2021/11/16 09:31:38;;;;;;;20.13;15.80;;;9.50;46.80;;;;;;10451367;28;20727;-78
2021/11/16 09:36:43;;;;;;;17.70;13.23;;;9.40;46.80;;;;;;10449391;28;20235;-77
2021/11/16 09:41:52;;;;;;;18.60;14.30;;;9.30;47.10;;;;;;10463085;28;20227;-78
2021/11/16 09:47:04;;;;;;;20.33;15.17;;;9.30;47.20;;;;;;10445490;28;20598;-78
2021/11/16 09:52:10;;;;;;;20.20;14.03;;;9.30;47.40;;;;;;10447197;28;20234;-78
2021/11/16 09:57:14;;;;;;;19.47;14.00;;;9.30;47.40;;;;;;10453797;28;20224;-76
2021/11/16 10:02:24;;;;;;;19.13;13.23;;;9.30;47.20;;;;;;10442989;28;20596;-76
2021/11/16 10:07:30;;;;;;;18.10;12.50;;;9.30;47.30;;;;;;10448437;28;20273;-76
2021/11/16 10:12:42;;;;;;;17.17;13.13;;;9.40;47.00;;;;;;10435017;28;20336;-77
2021/11/16 10:17:49;;;;;;;15.93;12.07;;;9.40;46.90;;;;;;10436448;28;20221;-77
2021/11/16 10:22:54;;;;;;;17.20;12.60;;;9.40;46.90;;;;;;10447477;28;20721;-76
2021/11/16 10:28:05;;;;;;;16.37;12.50;;;9.50;47.00;;;;;;10431531;28;20732;-76
2021/11/16 10:33:12;;;;;;;16.30;12.60;;;9.50;47.00;;;;;;10439454;28;20682;-77
2021/11/16 10:38:24;;;;;;;16.63;13.50;;;9.50;47.00;;;;;;10435901;28;20217;-77
2021/11/16 10:43:34;;;;;;;16.07;13.37;;;9.60;47.10;;;;;;10436910;28;20604;-77
2021/11/16 10:48:39;;;;;;;20.37;15.53;;;9.60;47.00;;;;;;10439739;28;20227;-76
2021/11/16 10:53:51;;;;;;;20.17;15.63;;;9.70;46.80;;;;;;10433666;28;20224;-77
2021/11/16 10:58:56;;;;;;;20.03;15.33;;;9.60;46.50;;;;;;10430115;28;20499;-77
2021/11/16 11:04:00;;;;;;;20.23;15.13;;;9.60;46.70;;;;;;10430546;28;20278;-77
2021/11/16 11:09:06;;;;;;;21.60;15.27;;;9.60;46.70;;;;;;10428566;28;20217;-77
2021/11/16 11:14:12;;;;;;;22.40;15.10;;;9.60;46.60;;;;;;10438173;28;20600;-77
2021/11/16 11:19:19;;;;;;;22.67;16.93;;;9.60;46.70;;;;;;10442854;28;20220;-77
2021/11/16 11:24:28;;;;;;;24.93;16.73;;;9.60;46.80;;;;;;10440710;28;20592;-77
2021/11/16 11:29:37;;;;;;;24.03;17.80;;;9.60;46.70;;;;;;10442903;28;20239;-77
2021/11/16 11:34:46;;;;;;;23.43;16.63;;;9.50;46.50;;;;;;10433564;28;20239;-77
2021/11/16 11:39:57;;;;;;;23.33;17.20;;;9.50;46.70;;;;;;10434320;28;20225;-76
2021/11/16 11:45:10;;;;;;;23.20;17.63;;;9.50;46.90;;;;;;10436851;28;20239;-77
2021/11/16 11:50:24;;;;;;;24.20;17.77;;;9.50;46.80;;;;;;10434378;28;20224;-77
2021/11/16 11:55:29;;;;;;;22.67;16.63;;;9.50;46.60;;;;;;10431332;28;21016;-76
2021/11/16 12:00:34;;;;;;;23.60;17.50;;;9.50;46.80;;;;;;10433624;28;20225;-76
2021/11/16 12:05:42;;;;;;;20.87;15.87;;;9.50;46.90;;;;;;10431801;28;20240;-76
2021/11/16 12:10:48;;;;;;;25.20;17.63;;;9.50;46.80;;;;;;10444048;28;20236;-76
2021/11/16 12:15:58;;;;;;;25.20;17.73;;;9.60;47.00;;;;;;10438941;28;20230;-76
2021/11/16 12:21:03;;;;;;;24.23;17.83;;;9.60;46.70;;;;;;10429723;28;20320;-75
2021/11/16 12:26:08;;;;;;;24.23;18.17;;;9.60;46.70;;;;;;10433700;28;20225;-75
2021/11/16 12:31:27;;;;;;;25.67;18.43;;;9.60;47.00;;;;;;10417213;28;20241;-76
2021/11/16 12:36:50;;;;;;;25.97;17.43;;;9.60;47.10;;;;;;10412370;28;20259;-76
2021/11/16 12:42:07;;;;;;;25.03;18.40;;;9.60;46.90;;;;;;10419900;28;20774;-77
2021/11/16 12:47:12;;;;;;;25.90;18.57;;;9.60;46.70;;;;;;10413167;28;20701;-79
2021/11/16 12:52:18;;;;;;;26.27;18.40;;;9.70;46.80;;;;;;10408057;28;20225;-76
2021/11/16 12:57:26;;;;;;;25.57;18.17;;;9.60;46.50;;;;;;10403276;28;20236;-75
2021/11/16 13:02:33;;;;;;;25.33;18.50;;;9.60;46.50;;;;;;10412963;28;20243;-74
2021/11/16 13:07:41;;;;;;;26.30;18.13;;;9.60;46.50;;;;;;10425981;28;20324;-74
2021/11/16 13:12:51;;;;;;;26.87;18.87;;;9.60;46.50;;;;;;10422176;28;20309;-75
2021/11/16 13:17:56;;;;;;;24.43;17.63;;;9.60;46.50;;;;;;10414704;28;20236;-76
2021/11/16 13:23:04;;;;;;;25.50;17.57;;;9.60;46.50;;;;;;10422535;28;20720;-76
2021/11/16 13:28:09;;;;;;;27.73;19.77;;;9.60;46.50;;;;;;10427805;28;21031;-76
2021/11/16 13:33:42;;;;;;;25.33;18.40;;;9.60;46.50;;;;;;10420509;28;20225;-76
2021/11/16 13:39:01;;;;;;;26.27;18.03;;;9.70;46.60;;;;;;10421716;28;20230;-74
2021/11/16 13:44:13;;;;;;;26.13;19.03;;;9.70;46.60;;;;;;10419508;28;20229;-74
2021/11/16 13:49:20;;;;;;;24.73;18.40;;;9.70;46.60;;;;;;10428765;28;20233;-75
2021/11/16 13:54:29;;;;;;;28.30;19.47;;;9.70;46.60;;;;;;10420300;28;20484;-75
2021/11/16 13:59:34;;;;;;;26.90;19.03;;;9.70;46.60;;;;;;10422025;28;20230;-77
2021/11/16 14:04:38;;;;;;;23.27;16.77;;;9.70;46.60;;;;;;10432006;28;20256;-77
2021/11/16 14:09:45;;;;;;;27.20;18.73;;;9.80;46.70;;;;;;10426531;28;20231;-76
2021/11/16 14:14:58;;;;;;;23.97;18.23;;;9.80;46.70;;;;;;10449688;28;20256;-75
2021/11/16 14:20:08;;;;;;;22.97;17.37;;;9.80;46.60;;;;;;10438098;28;20240;-76
2021/11/16 14:25:20;;;;;;;23.60;18.37;;;9.80;46.60;;;;;;10434989;28;20225;-76
2021/11/16 14:30:28;;;;;;;23.70;17.57;;;9.80;46.60;;;;;;10442515;28;20231;-77
2021/11/16 14:35:31;;;;;;;26.60;19.03;;;9.90;46.70;;;;;;10433756;28;20233;-77
2021/11/16 14:40:37;;;;;;;26.20;18.17;;;9.90;46.70;;;;;;10430825;28;20230;-77
2021/11/16 14:45:41;;;;;;;24.47;18.40;;;9.90;46.70;;;;;;10434485;28;20239;-76
2021/11/16 14:50:58;;;;;;;27.10;21.00;;;9.90;46.70;;;;;;10431755;28;20240;-76
2021/11/16 14:56:12;;;;;;;30.23;21.33;;;9.90;46.70;;;;;;10432117;28;20224;-76
2021/11/16 15:01:16;;;;;;;29.40;21.07;;;9.90;46.70;;;;;;10435736;28;20216;-77
2021/11/16 15:06:23;;;;;;;34.23;23.43;;;9.90;46.70;;;;;;10431266;28;20301;-77
2021/11/16 15:11:30;;;;;;;31.73;23.47;;;9.90;46.50;;;;;;10446530;28;20780;-77
2021/11/16 15:16:37;;;;;;;33.50;22.97;;;9.90;46.60;;;;;;10468075;28;20236;-76
2021/11/16 15:21:52;;;;;;;31.57;23.37;;;9.90;46.70;;;;;;10440140;28;20915;-77
2021/11/16 15:26:57;;;;;;;32.23;22.77;;;9.90;46.70;;;;;;10423930;28;20733;-77
2021/11/16 15:32:01;;;;;;;38.80;25.30;;;9.80;46.70;;;;;;10441672;28;20239;-77
2021/11/16 15:37:08;;;;;;;36.80;26.30;;;9.90;46.60;;;;;;10437222;28;20229;-77
2021/11/16 15:42:12;;;;;;;34.80;23.90;;;9.80;46.30;;;;;;10430348;28;20233;-76
2021/11/16 15:47:24;;;;;;;34.33;24.77;;;9.80;46.60;;;;;;10439112;28;20235;-76
2021/11/16 15:58:20;;;;;;;35.43;24.83;;;9.70;46.60;;;;;;10423503;28;20217;-76
2021/11/16 16:03:24;;;;;;;34.23;22.97;;;9.70;46.60;;;;;;10430643;28;20294;-76
2021/11/16 16:08:27;;;;;;;35.30;24.47;;;9.70;46.60;;;;;;10430261;28;20708;-76
2021/11/16 16:13:37;;;;;;;31.37;22.90;;;9.70;46.60;;;;;;10433251;28;20415;-76
2021/11/16 16:18:40;;;;;;;31.57;21.60;;;9.70;46.60;;;;;;10431967;28;20220;-76
2021/11/16 16:23:47;;;;;;;32.80;22.63;;;9.70;46.60;;;;;;10430058;28;20312;-78
2021/11/16 16:28:54;;;;;;;27.13;21.23;;;9.80;46.60;;;;;;10415820;28;20777;-76
2021/11/16 16:33:58;;;;;;;31.93;22.60;;;9.70;46.60;;;;;;10423667;28;20239;-77
2021/11/16 16:39:01;;;;;;;32.43;21.30;;;9.70;46.60;;;;;;10425786;28;20233;-76
2021/11/16 16:44:08;;;;;;;28.50;21.53;;;9.70;46.80;;;;;;10401188;28;20232;-76
2021/11/16 16:49:12;;;;;;;31.47;21.33;;;9.70;47.00;;;;;;10437901;28;20227;-75
2021/11/16 16:54:16;;;;;;;29.53;21.30;;;9.80;47.00;;;;;;10433103;28;20225;-79
2021/11/16 16:59:25;;;;;;;30.10;21.00;;;9.80;46.90;;;;;;10427223;28;20239;-78
2021/11/16 17:04:33;;;;;;;32.57;21.93;;;9.80;46.80;;;;;;10427541;28;20236;-78
2021/11/16 17:09:36;;;;;;;28.43;19.80;;;9.80;46.70;;;;;;10441792;28;20235;-79
2021/11/16 17:14:45;;;;;;;28.07;20.13;;;9.90;46.80;;;;;;10444637;28;20239;-79
2021/11/16 17:19:49;;;;;;;27.00;18.63;;;9.90;46.70;;;;;;10441200;28;20266;-78
2021/11/16 17:24:54;;;;;;;24.97;17.60;;;9.90;46.80;;;;;;10445292;28;20244;-78
2021/11/16 17:29:59;;;;;;;37.10;27.40;;;9.90;47.20;;;;;;10441005;28;20226;-78
2021/11/16 17:35:02;;;;;;;30.07;21.80;;;9.90;48.00;;;;;;10436524;28;20229;-78
2021/11/16 17:40:07;;;;;;;29.47;21.73;;;9.90;47.30;;;;;;10439387;28;20244;-78
2021/11/16 17:45:11;;;;;;;36.27;26.43;;;10.00;46.30;;;;;;10447423;28;20569;-78
2021/11/16 17:50:15;;;;;;;26.07;20.20;;;10.00;46.20;;;;;;10437353;28;20243;-78
2021/11/16 17:55:20;;;;;;;32.00;23.67;;;10.10;46.00;;;;;;10443619;28;20225;-78
2021/11/16 18:00:30;;;;;;;30.40;23.30;;;10.10;46.00;;;;;;10442448;28;20603;-77
2021/11/16 18:05:48;;;;;;;29.80;22.03;;;10.10;46.00;;;;;;10432053;28;20329;-77
2021/11/16 18:10:54;;;;;;;26.73;20.70;;;10.10;46.00;;;;;;10445955;28;20235;-78
2021/11/16 18:15:58;;;;;;;29.23;21.63;;;10.10;46.00;;;;;;10431113;28;20240;-77
2021/11/16 18:21:02;;;;;;;36.07;27.50;;;10.10;45.80;;;;;;10436233;28;20246;-77
2021/11/16 18:26:05;;;;;;;31.63;23.30;;;10.10;45.90;;;;;;10440728;28;20311;-74
2021/11/16 18:31:22;;;;;;;24.43;18.73;;;10.10;46.00;;;;;;10442840;28;20705;-77
2021/11/16 18:36:27;;;;;;;23.40;18.60;;;10.10;46.00;;;;;;10431139;28;20308;-77
2021/11/16 18:41:37;;;;;;;31.20;22.53;;;10.10;46.00;;;;;;10435051;28;20231;-77
2021/11/16 18:46:45;;;;;;;30.93;24.40;;;10.10;45.90;;;;;;10441441;28;20236;-76
2021/11/16 18:51:48;;;;;;;28.63;23.20;;;10.10;45.80;;;;;;10441723;28;20236;-75
2021/11/16 18:57:03;;;;;;;27.13;20.30;;;10.10;45.80;;;;;;10440956;28;20233;-75
2021/11/16 19:02:08;;;;;;;23.47;18.77;;;10.10;45.70;;;;;;10426274;28;20225;-74
2021/11/16 19:07:12;;;;;;;46.30;34.90;;;10.10;45.80;;;;;;10435667;28;20256;-75
2021/11/16 19:12:17;;;;;;;27.57;21.50;;;10.10;46.00;;;;;;10434703;28;20245;-75
2021/11/16 19:17:21;;;;;;;24.03;17.53;;;10.10;45.90;;;;;;10435615;28;20229;-75
2021/11/16 19:22:28;;;;;;;26.47;20.77;;;10.10;45.60;;;;;;10444329;28;20245;-75
2021/11/16 19:27:39;;;;;;;24.40;18.80;;;10.10;45.80;;;;;;10458246;28;20316;-75
2021/11/16 19:32:45;;;;;;;27.23;20.90;;;10.20;45.80;;;;;;10438198;28;20249;-76
2021/11/16 19:37:51;;;;;;;24.77;18.70;;;10.20;45.40;;;;;;10431863;28;20225;-75
2021/11/16 19:42:55;;;;;;;26.60;19.70;;;10.10;45.50;;;;;;10426990;28;20231;-74
2021/11/16 19:48:00;;;;;;;25.63;18.60;;;10.00;45.40;;;;;;10440064;28;20223;-75
2021/11/16 19:53:04;;;;;;;24.00;17.67;;;10.00;45.40;;;;;;10499732;28;20235;-74
2021/11/16 19:58:12;;;;;;;23.17;18.93;;;10.00;45.70;;;;;;10491529;28;20320;-74
2021/11/16 20:03:18;;;;;;;22.37;17.27;;;10.00;45.70;;;;;;10496689;28;20228;-74
2021/11/16 20:08:21;;;;;;;24.83;20.10;;;10.00;45.60;;;;;;10493170;28;20224;-74
2021/11/16 20:13:26;;;;;;;27.13;20.50;;;10.00;45.90;;;;;;10497098;28;20232;-74
2021/11/16 20:18:31;;;;;;;26.57;20.60;;;10.00;45.90;;;;;;10489385;28;20228;-73
2021/11/16 20:23:34;;;;;;;26.03;20.50;;;9.90;46.70;;;;;;10489085;28;20252;-74
2021/11/16 20:28:41;;;;;;;23.43;18.77;;;10.00;45.90;;;;;;10485140;28;20250;-77
2021/11/16 20:33:47;;;;;;;24.73;18.23;;;10.00;45.90;;;;;;10474875;28;20232;-77
2021/11/16 20:39:01;;;;;;;21.87;17.57;;;10.00;45.80;;;;;;10467716;28;20233;-78
2021/11/16 20:44:09;;;;;;;20.93;15.87;;;10.00;45.70;;;;;;10462208;28;20599;-77
2021/11/16 20:59:55;;;;;;;12.53;10.87;;;9.70;46.60;;;;;;10426020;28;20231;-78
2021/11/16 21:05:00;;;;;;;12.87;10.03;;;9.70;46.60;;;;;;10424479;28;20295;-78
2021/11/16 21:10:04;;;;;;;10.17;8.93;;;9.70;46.80;;;;;;10423456;23;20308;-73
2021/11/16 21:15:08;;;;;;;9.57;8.57;;;9.70;46.60;;;;;;10361253;28;20233;-73
2021/11/16 21:20:13;;;;;;;11.77;9.30;;;9.70;46.60;;;;;;10366592;28;20248;-73
2021/11/16 21:25:17;;;;;;;10.30;9.17;;;9.60;46.50;;;;;;10366387;28;21405;-73
2021/11/16 21:30:21;;;;;;;10.10;8.20;;;9.50;46.40;;;;;;10371495;28;20233;-73
2021/11/16 21:35:27;;;;;;;10.47;8.07;;;9.40;46.60;;;;;;10360266;28;20234;-73
2021/11/16 21:40:31;;;;;;;8.13;7.33;;;9.40;46.80;;;;;;10374487;28;20236;-73
2021/11/16 21:45:35;;;;;;;8.80;7.47;;;9.40;46.70;;;;;;10377092;28;20232;-73
2021/11/16 21:50:40;;;;;;;7.80;7.00;;;9.30;46.80;;;;;;10375420;28;20392;-73
2021/11/16 21:55:44;;;;;;;7.57;6.83;;;9.30;46.80;;;;;;10375836;28;20222;-74
2021/11/16 22:00:47;;;;;;;8.67;7.10;;;9.30;46.80;;;;;;10373073;28;20242;-74
2021/11/16 22:05:52;;;;;;;7.87;7.03;;;9.20;46.80;;;;;;10372289;28;20732;-74
2021/11/16 22:15:58;;;;;;;6.93;6.23;;;9.20;47.00;;;;;;10362628;28;20226;-74
2021/11/16 22:21:03;;;;;;;7.27;6.57;;;9.20;47.00;;;;;;10369661;28;20233;-74
2021/11/16 22:26:06;;;;;;;7.77;5.73;;;9.20;46.80;;;;;;10375218;28;20226;-74
2021/11/16 22:31:10;;;;;;;6.33;5.73;;;9.10;46.90;;;;;;10369887;28;20241;-74
2021/11/16 22:36:29;;;;;;;6.47;5.87;;;9.10;47.00;;;;;;10370552;28;20237;-74
2021/11/16 22:41:40;;;;;;;4.93;4.33;;;9.10;47.10;;;;;;10367124;28;20527;-74
2021/11/16 22:46:43;;;;;;;5.93;5.40;;;9.20;47.30;;;;;;10368882;28;20230;-74
2021/11/16 22:51:49;;;;;;;6.50;5.90;;;9.30;47.30;;;;;;10368347;28;20263;-74
2021/11/16 22:56:52;;;;;;;6.73;6.03;;;9.40;47.30;;;;;;10365064;28;20226;-74
